Latest Weather Observations for Sydney - Observatory Hill

IDN60901

Issued at 3:01 pm EDT Friday 24 February 2017 (issued every 10 minutes, with the page automatically refreshed every 10 minutes)

About weather observations | Map of Sydney area stations | Latest observations for Sydney area | Other Formats
Station Details ID: 066062 Name: SYDNEY (OBSERVATORY HILL) Lat: -33.86 Lon: 151.21 Height: 39.0 m
Data from the previous 72 hours. | See also: Recent months at Sydney - Observatory Hill

* Apparent temperature (App Temp) for Sydney - Observatory Hill is calculated using temperature observations collected at Sydney - Observatory Hill and wind observations collected at Fort Denison, as wind observations are not currently provided for Sydney - Observatory Hill.

Date/Time
EDT
Temp
°C
App
Temp
°C
Dew
Point
°C
Rel
Hum
%
Delta-T
°C
Wind Press
QNH
hPa
Press
MSL
hPa
Rain since
9am
mm
Dir  Spd
km/h
Gust
km/h
Spd
kts
Gust
kts
24/02:30pm 26.7 27.0 17.8 58 5.6 ESE 13 - 7 - 1018.7 1018.6 0.0
24/02:00pm 27.1 27.4 17.8 56 5.9 E 13 - 7 - 1019.4 1019.3 0.0
24/01:30pm 26.9 27.2 17.1 55 6.1 ESE 11 - 6 - 1019.6 1019.5 0.0
24/01:00pm 26.4 26.5 17.5 58 5.6 E 13 - 7 - 1020.2 1020.0 0.0
24/12:30pm 26.1 27.7 18.2 61 5.0 E 7 - 4 - 1020.6 1020.4 0.0
24/12:00pm 26.0 27.8 18.4 63 4.8 S 6 - 3 - 1020.9 1020.7 0.0
24/11:30am 25.4 26.0 17.8 62 4.8 SSE 11 - 6 - 1021.1 1020.9 0.0
24/11:00am 24.6 25.4 18.1 67 4.1 SSE 11 - 6 - 1021.3 1021.1 0.0
24/10:30am 24.5 25.4 18.4 69 3.9 SSW 11 - 6 - 1021.4 1021.2 0.0
24/10:00am 24.5 26.3 18.2 68 4.0 S 6 - 3 - 1021.3 1021.1 0.0
24/09:30am 24.3 26.2 18.5 70 3.7 S 6 - 3 - 1021.2 1021.0 0.0
24/09:00am 24.5 26.2 18.4 69 3.8 SE 7 - 4 - 1021.0 1020.8 0.0
24/08:30am 23.9 25.7 18.3 71 3.5 SSE 6 - 3 - 1020.8 1020.6 0.0
24/08:00am 23.5 25.1 18.2 72 3.3 SE 7 - 4 - 1020.4 1020.2 0.0
24/07:30am 22.9 24.0 18.0 74 3.1 ESE 9 - 5 - 1020.1 1019.9 0.0
24/07:00am 22.5 23.1 17.8 75 2.9 ESE 11 - 6 - 1019.5 1019.4 0.0
24/06:30am 22.3 22.9 17.7 75 2.9 ESE 11 - 6 - 1019.0 1018.9 0.0
24/06:00am 22.2 23.6 17.8 76 2.7 E 7 - 4 - 1018.3 1018.2 0.0
24/05:30am 22.0 23.4 17.8 77 2.6 E 7 - 4 - 1018.3 1018.2 0.0
24/05:00am 21.9 23.5 17.9 78 2.5 E 6 - 3 - 1017.9 1017.8 0.0
24/04:30am 21.8 23.7 17.6 77 2.6 ENE 4 - 2 - 1017.7 1017.6 0.0
24/04:00am 21.9 23.1 17.3 75 2.8 ENE 7 - 4 - 1017.8 1017.7 0.0
24/03:30am 22.1 22.4 17.0 73 3.1 E 11 - 6 - 1017.7 1017.6 0.0
24/03:00am 21.9 22.5 16.8 73 3.1 NE 9 - 5 - 1017.3 1017.2 0.0
24/02:30am 21.9 22.6 17.1 74 2.9 NE 9 - 5 - 1017.3 1017.2 0.0
24/02:00am 22.1 22.5 17.2 74 3.0 NE 11 - 6 - 1017.4 1017.3 0.0
24/01:30am 22.3 23.1 17.2 73 3.1 NE 9 - 5 - 1017.6 1017.5 0.0
24/01:00am 22.4 23.0 16.9 71 3.4 NE 9 - 5 - 1017.9 1017.8 0.0
24/12:30am 22.6 22.6 17.1 71 3.4 NE 13 - 7 - 1018.0 1017.9 0.0
24/12:00am 22.9 22.8 16.9 69 3.7 NE 13 - 7 - 1018.2 1018.1 0.0
 
Date/Time
EDT
Temp
°C
App
Temp
°C
Dew
Point
°C
Rel
Hum
%
Delta-T
°C
Wind Press
QNH
hPa
Press
MSL
hPa
Rain since
9am
mm
Dir  Spd
km/h
Gust
km/h
Spd
kts
Gust
kts
23/11:30pm 23.2 23.1 17.0 68 3.8 ENE 13 - 7 - 1018.1 1018.0 0.0
23/11:00pm 23.4 24.6 16.9 67 4.0 NE 6 - 3 - 1018.4 1018.3 0.0
23/10:30pm 23.6 23.9 16.9 66 4.1 NNE 11 - 6 - 1018.6 1018.5 0.0
23/10:00pm 23.6 22.7 16.9 66 4.1 NNE 17 - 9 - 1018.7 1018.6 0.0
23/09:30pm 23.7 22.0 17.2 67 4.0 NE 22 - 12 - 1018.4 1018.3 0.0
23/09:00pm 23.9 21.4 17.2 66 4.1 NE 26 - 14 - 1018.1 1018.0 0.0
23/08:30pm 24.1 21.5 16.9 64 4.4 NE 26 - 14 - 1017.6 1017.5 0.0
23/08:00pm 24.3 21.2 16.6 62 4.7 NNE 28 - 15 - 1017.3 1017.2 0.0
23/07:30pm 24.5 22.0 16.2 60 5.1 NNE 24 - 13 - 1017.0 1016.9 0.0
23/07:00pm 24.9 21.3 15.2 54 5.8 NE 28 - 15 - 1016.8 1016.7 0.0
23/06:30pm 25.4 22.5 15.1 53 6.2 NE 24 - 13 - 1016.6 1016.5 0.0
23/06:00pm 25.9 22.9 15.9 54 6.1 NE 26 - 14 - 1016.5 1016.4 0.0
23/05:30pm 25.8 24.0 16.1 55 5.9 NE 20 - 11 - 1016.5 1016.4 0.0
23/05:00pm 26.5 24.0 16.1 52 6.4 NE 24 - 13 - 1016.6 1016.5 0.0
23/04:30pm 27.0 24.2 16.3 52 6.6 ENE 26 - 14 - 1016.6 1016.5 0.0
23/04:00pm 27.8 25.3 16.1 49 7.2 ENE 24 - 13 - 1016.7 1016.6 0.0
23/03:30pm 27.7 26.0 16.3 49 7.1 NE 20 - 11 - 1017.1 1017.0 0.0
23/03:00pm 27.3 25.4 16.6 52 6.6 ENE 22 - 12 - 1017.3 1017.2 0.0
23/02:30pm 26.7 23.6 16.6 54 6.3 ENE 28 - 15 - 1017.6 1017.5 0.0
23/02:00pm 27.2 24.2 15.9 50 6.9 ENE 26 - 14 - 1017.9 1017.8 0.0
23/01:30pm 27.2 25.5 16.2 51 6.8 NE 20 - 11 - 1018.2 1018.1 0.0
23/01:00pm 26.9 25.3 15.9 51 6.7 NE 19 - 10 - 1018.5 1018.4 0.0
23/12:30pm 26.5 24.6 15.8 51 6.5 NE 20 - 11 - 1018.7 1018.6 0.0
23/12:00pm 25.9 24.1 15.9 54 6.1 ENE 20 - 11 - 1018.9 1018.8 0.0
23/11:30am 26.0 24.3 16.3 55 6.0 ENE 20 - 11 - 1019.1 1019.0 0.0
23/11:00am 26.4 24.7 16.3 53 6.2 E 20 - 11 - 1019.3 1019.2 0.0
23/10:30am 26.6 25.2 16.5 54 6.2 E 19 - 10 - 1019.5 1019.4 0.0
23/10:00am 26.4 27.0 15.8 52 6.5 NE 7 - 4 - 1019.8 1019.6 0.0
23/09:30am 25.6 25.4 15.6 54 6.1 NNE 11 - 6 - 1019.9 1019.7 0.0
23/09:00am 25.4 24.1 15.7 55 5.9 N 17 - 9 - 1020.0 1019.8 0.0
23/08:30am 24.0 24.1 15.5 59 5.1 NE 9 - 5 - 1019.5 1019.4 0.0
23/08:00am 23.4 23.7 16.0 63 4.5 NNE 9 - 5 - 1019.3 1019.2 0.0
23/07:30am 22.0 23.3 16.1 69 3.6 NNW 4 - 2 - 1019.5 1019.4 0.0
23/07:00am 21.8 22.4 15.9 69 3.5 N 7 - 4 - 1019.1 1019.0 0.0
23/06:30am 21.8 21.2 15.6 68 3.7 NNE 13 - 7 - 1018.6 1018.5 0.0
23/06:00am 21.8 20.9 15.9 69 3.5 NNE 15 - 8 - 1018.3 1018.2 0.0
23/05:30am 21.8 21.2 15.6 68 3.7 NNE 13 - 7 - 1018.2 1018.1 0.0
23/05:00am 21.9 21.7 15.7 68 3.7 NNE 11 - 6 - 1018.4 1018.3 0.0
23/04:30am 22.0 21.5 15.8 68 3.7 NE 13 - 7 - 1018.4 1018.3 0.0
23/04:00am 22.0 21.8 15.8 68 3.7 NE 11 - 6 - 1018.4 1018.3 0.0
23/03:30am 22.1 22.0 15.9 68 3.7 NNE 11 - 6 - 1018.5 1018.4 0.0
23/03:00am 22.1 22.4 15.9 68 3.7 NNE 9 - 5 - 1018.5 1018.4 0.0
23/02:30am 22.2 21.7 15.8 67 3.9 NNE 13 - 7 - 1018.8 1018.7 0.0
23/02:00am 22.3 21.9 16.1 68 3.7 NE 13 - 7 - 1018.8 1018.7 0.0
23/01:30am 22.3 21.9 16.1 68 3.7 NE 13 - 7 - 1019.0 1018.9 0.0
23/01:00am 22.4 21.6 16.0 67 3.9 NE 15 - 8 - 1019.1 1019.0 0.0
23/12:30am 22.5 21.8 16.3 68 3.8 NNE 15 - 8 - 1019.3 1019.2 0.0
23/12:00am 22.7 21.2 16.3 67 3.9 NE 19 - 10 - 1019.1 1019.0 0.0
 
Date/Time
EDT
Temp
°C
App
Temp
°C
Dew
Point
°C
Rel
Hum
%
Delta-T
°C
Wind Press
QNH
hPa
Press
MSL
hPa
Rain since
9am
mm
Dir  Spd
km/h
Gust
km/h
Spd
kts
Gust
kts
22/11:30pm 22.9 21.2 16.2 66 4.1 NE 20 - 11 - 1019.1 1019.0 0.0
22/11:00pm 23.1 21.4 16.2 65 4.2 NE 20 - 11 - 1019.1 1019.0 0.0
22/10:30pm 23.2 21.4 16.0 64 4.4 NE 20 - 11 - 1019.1 1019.0 0.0
22/10:00pm 23.4 21.4 16.4 64 4.3 NNE 22 - 12 - 1019.0 1018.9 0.0
22/09:30pm 23.4 21.0 16.4 64 4.3 NE 24 - 13 - 1018.8 1018.7 0.0
22/09:00pm 23.6 21.7 16.6 65 4.3 NE 22 - 12 - 1018.6 1018.5 0.0
22/08:30pm 23.8 21.6 16.8 65 4.3 NE 24 - 13 - 1018.1 1018.0 0.0
22/08:00pm 23.9 21.7 16.9 65 4.3 NE 24 - 13 - 1017.8 1017.7 0.0
22/07:30pm 24.3 21.7 16.8 63 4.6 NE 26 - 14 - 1017.4 1017.3 0.0
22/07:00pm 24.8 21.6 16.2 58 5.3 NE 28 - 15 - 1017.3 1017.2 0.0
22/06:30pm 25.2 22.2 15.8 56 5.7 NE 26 - 14 - 1017.2 1017.1 0.0
22/06:00pm 25.5 23.0 16.1 56 5.7 NE 24 - 13 - 1017.3 1017.2 0.0
22/05:30pm 25.9 22.9 15.9 54 6.1 NE 26 - 14 - 1017.4 1017.3 0.0
22/05:00pm 26.1 23.0 15.5 52 6.4 NE 26 - 14 - 1017.4 1017.3 0.0
22/04:30pm 26.4 22.9 15.4 50 6.7 NE 28 - 15 - 1017.6 1017.5 0.0
22/04:00pm 26.1 23.2 15.2 51 6.6 NE 24 - 13 - 1017.8 1017.7 0.0
22/03:30pm 26.4 23.4 14.8 49 7.0 NE 24 - 13 - 1018.1 1018.0 0.0
22/03:00pm 26.2 23.3 14.0 47 7.2 NE 22 - 12 - 1018.6 1018.5 0.0
22/02:30pm 26.5 22.4 13.9 45 7.5 NE 28 - 15 - 1019.0 1018.9 0.0
22/02:00pm 26.8 23.2 14.2 46 7.5 NE 26 - 14 - 1019.4 1019.3 0.0
22/01:30pm 26.9 22.8 15.0 48 7.2 NE 30 - 16 - 1019.8 1019.6 0.0
22/01:00pm 27.3 24.2 15.7 49 7.1 NE 26 - 14 - 1020.1 1019.9 0.0
22/12:30pm 27.1 23.7 14.8 47 7.4 NE 26 - 14 - 1020.4 1020.2 0.0
22/12:00pm 27.2 24.2 14.9 47 7.4 NE 24 - 13 - 1020.7 1020.5 0.0
22/11:30am 26.9 24.8 15.3 49 7.1 NE 20 - 11 - 1021.1 1020.9 0.0
22/11:00am 26.6 23.7 14.0 46 7.5 NE 22 - 12 - 1021.6 1021.4 0.0
22/10:30am 26.1 23.7 13.9 47 7.2 NE 19 - 10 - 1021.7 1021.5 0.0
22/10:00am 26.6 23.7 14.0 46 7.5 NE 22 - 12 - 1021.8 1021.6 0.0
22/09:30am 26.5 24.1 14.3 47 7.3 NNE 20 - 11 - 1021.9 1021.7 0.0
22/09:00am 25.8 24.4 14.6 50 6.7 NNE 15 - 8 - 1021.8 1021.6 0.0
22/08:30am 24.3 24.3 15.2 57 5.5 NNE 9 - 5 - 1021.6 1021.4 0.0
22/08:00am 23.6 24.1 15.6 61 4.8 N 7 - 4 - 1021.3 1021.1 0.0
22/07:30am 21.8 22.7 16.1 70 3.4 N 6 - 3 - 1021.0 1020.8 0.0
22/07:00am 21.6 22.6 15.4 68 3.7 NNW 4 - 2 - 1020.7 1020.5 0.0
22/06:30am 21.6 23.0 15.4 68 3.7 NNW 2 - 1 - 1020.3 1020.1 0.0
22/06:00am 21.4 22.8 15.5 69 3.5 NNW 2 - 1 - 1020.1 1019.9 0.0
22/05:30am 21.2 22.6 15.3 69 3.5 NNW 2 - 1 - 1020.0 1019.8 0.0
22/05:00am 21.4 22.3 15.0 67 3.8 NNW 4 - 2 - 1019.9 1019.7 0.0
22/04:30am 21.9 22.9 15.3 66 3.9 N 4 - 2 - 1019.8 1019.6 0.0
22/04:00am 22.2 22.7 15.1 64 4.2 NNE 6 - 3 - 1019.8 1019.6 0.0
22/03:30am 22.4 22.7 15.0 63 4.4 NNE 7 - 4 - 1019.6 1019.5 0.0
22/03:00am 22.5 22.4 14.9 62 4.5 NNE 9 - 5 - 1019.8 1019.6 0.0
22/02:30am 22.6 21.8 15.0 62 4.5 NNE 13 - 7 - 1019.9 1019.7 0.0
22/02:00am 22.8 21.9 14.9 61 4.7 NNE 13 - 7 - 1020.2 1020.0 0.0
22/01:30am 22.8 21.6 15.1 62 4.6 NNE 15 - 8 - 1020.5 1020.3 0.0
22/01:00am 22.9 21.4 15.2 62 4.6 NNE 17 - 9 - 1020.6 1020.4 0.0
22/12:30am 22.9 20.9 15.0 61 4.7 NNE 19 - 10 - 1020.8 1020.6 0.0
22/12:00am 23.1 21.8 14.9 60 4.9 NNE 15 - 8 - 1020.9 1020.7 0.0
 
Date/Time
EDT
Temp
°C
App
Temp
°C
Dew
Point
°C
Rel
Hum
%
Delta-T
°C
Wind Press
QNH
hPa
Press
MSL
hPa
Rain since
9am
mm
Dir  Spd
km/h
Gust
km/h
Spd
kts
Gust
kts
21/11:30pm 23.2 21.5 14.7 58 5.0 NNE 17 - 9 - 1021.1 1020.9 0.0
21/11:00pm 23.3 21.6 14.8 59 5.0 NNE 17 - 9 - 1021.2 1021.0 0.0
21/10:30pm 23.4 21.7 14.7 58 5.2 NNE 17 - 9 - 1021.2 1021.0 0.0
21/10:00pm 23.6 21.3 14.6 57 5.3 NNE 20 - 11 - 1021.2 1021.0 0.0
21/09:30pm 23.8 22.1 14.8 57 5.4 NNE 17 - 9 - 1021.1 1020.9 0.0
21/09:00pm 23.8 22.1 14.8 57 5.3 NE 17 - 9 - 1021.0 1020.8 0.0
21/08:30pm 24.1 22.3 14.5 55 5.7 NE 17 - 9 - 1020.5 1020.3 0.0
21/08:00pm 24.4 23.0 13.3 50 6.4 NE 13 - 7 - 1020.0 1019.8 0.0
21/07:30pm 24.6 23.2 14.4 53 6.1 NE 15 - 8 - 1019.8 1019.6 0.0
21/07:00pm 25.0 22.5 13.5 48 6.7 NE 19 - 10 - 1019.3 1019.2 0.0
21/06:30pm 25.4 22.5 12.9 45 7.3 ENE 20 - 11 - 1018.7 1018.6 0.0
21/06:00pm 25.5 22.8 13.0 46 7.3 ENE 19 - 10 - 1018.5 1018.4 0.0
21/05:30pm 25.9 22.9 12.7 44 7.7 ENE 20 - 11 - 1018.4 1018.3 0.0
21/05:00pm 26.0 22.7 12.8 44 7.7 ESE 22 - 12 - 1018.4 1018.3 0.0
21/04:30pm 26.0 22.7 11.7 41 8.2 ESE 20 - 11 - 1018.3 1018.2 0.0
21/04:00pm 25.9 22.5 11.3 40 8.3 ESE 20 - 11 - 1018.4 1018.3 0.0
21/03:30pm 26.3 22.9 11.2 38 8.6 ESE 20 - 11 - 1018.4 1018.3 0.0

Latest Capital City Observations: Canberra | Sydney | Melbourne | Brisbane | Adelaide | Perth | Hobart | Darwin

Other Formats:

Comma delimited format used in spreadsheet applications
http://www.bom.gov.au/fwo/IDN60901/IDN60901.94768.axf

JavaScript Object Notation format (JSON) in row-major order
http://www.bom.gov.au/fwo/IDN60901/IDN60901.94768.json